createdAt,value
2022-12-07T05:30:59.938Z,41.80
2022-12-07T05:31:58.328Z,45.00
2022-12-07T05:32:58.283Z,38.40
2022-12-07T05:33:58.274Z,37.40
2022-12-07T05:34:58.231Z,40.10
2022-12-07T05:35:58.220Z,39.30
2022-12-07T05:36:58.212Z,45.30
2022-12-07T05:37:58.200Z,38.50
2022-12-07T05:38:58.201Z,37.70
2022-12-07T05:39:58.190Z,38.00
2022-12-07T05:40:58.150Z,36.60
2022-12-07T05:41:58.148Z,38.20
2022-12-07T05:43:04.030Z,36.40
2022-12-07T05:45:08.003Z,37.10
2022-12-07T05:46:08.128Z,32.20
2022-12-07T05:47:07.959Z,39.70
2022-12-07T05:48:07.948Z,27.80
2022-12-07T05:49:07.971Z,34.80
2022-12-07T05:50:07.925Z,37.50
2022-12-07T05:51:07.899Z,33.30
2022-12-07T05:52:07.889Z,39.80
2022-12-07T05:53:07.889Z,32.50
2022-12-07T05:54:07.869Z,29.40
2022-12-07T05:55:07.852Z,34.80
2022-12-07T05:56:07.831Z,32.40
2022-12-07T05:57:07.829Z,31.40
2022-12-07T05:58:07.808Z,33.00
2022-12-07T05:59:07.968Z,32.20
2022-12-07T06:00:07.787Z,34.70
2022-12-07T06:01:07.767Z,36.40
2022-12-07T06:02:07.854Z,41.60
2022-12-07T06:03:07.938Z,37.30
2022-12-07T06:04:07.745Z,38.20
2022-12-07T06:05:07.727Z,33.90
2022-12-07T06:06:07.751Z,32.00
2022-12-07T06:07:07.706Z,32.50
2022-12-07T06:08:07.717Z,34.90
2022-12-07T06:09:07.685Z,28.70
2022-12-07T06:10:07.655Z,29.30
2022-12-07T06:11:07.645Z,35.40
2022-12-07T06:12:07.645Z,29.40
2022-12-07T06:13:07.626Z,28.50
2022-12-07T06:14:07.622Z,33.10
2022-12-07T06:15:07.594Z,30.90
2022-12-07T06:16:07.625Z,29.90
2022-12-07T06:17:07.629Z,27.70
2022-12-07T06:18:07.564Z,34.60
2022-12-07T06:19:07.543Z,28.70
2022-12-07T06:20:07.553Z,35.10
2022-12-07T06:21:07.525Z,30.10
2022-12-07T06:22:07.502Z,35.80
2022-12-07T06:23:07.496Z,36.50
2022-12-07T06:24:07.472Z,31.00
2022-12-07T06:25:08.925Z,31.70
2022-12-07T06:26:07.452Z,29.50
2022-12-07T06:27:07.443Z,28.70
2022-12-07T06:28:07.432Z,29.30
2022-12-07T06:29:07.413Z,29.20
2022-12-07T06:30:07.538Z,34.60
2022-12-07T06:31:13.471Z,36.90
2022-12-07T06:32:08.424Z,30.80
2022-12-07T06:33:07.375Z,29.90
2022-12-07T06:34:07.348Z,25.30
2022-12-07T06:35:07.530Z,34.30
2022-12-07T06:36:07.320Z,32.10
2022-12-07T06:37:07.311Z,32.10
2022-12-07T06:38:07.297Z,31.00
2022-12-07T06:39:07.318Z,31.20
2022-12-07T06:40:07.298Z,29.00
2022-12-07T06:41:07.267Z,34.50
2022-12-07T06:42:07.249Z,32.30
2022-12-07T06:43:07.236Z,33.50
2022-12-07T06:44:07.217Z,34.50
2022-12-07T06:45:07.225Z,33.50
2022-12-07T06:46:07.268Z,32.20
2022-12-07T06:47:38.835Z,31.90
2022-12-07T06:48:08.160Z,34.10
2022-12-07T06:49:07.157Z,32.90
2022-12-07T06:50:07.189Z,33.10
2022-12-07T06:51:07.127Z,31.40
2022-12-07T06:52:07.129Z,33.20
2022-12-07T06:53:07.104Z,36.80
2022-12-07T06:54:07.088Z,34.00
2022-12-07T06:55:07.088Z,35.90
2022-12-07T06:56:07.057Z,38.60
2022-12-07T06:57:07.045Z,37.50
2022-12-07T06:58:07.046Z,31.90
2022-12-07T06:59:07.025Z,37.90
2022-12-07T07:00:07.251Z,39.60
2022-12-07T07:01:07.049Z,33.20
2022-12-07T07:02:07.059Z,37.40
2022-12-07T07:03:06.975Z,39.30
2022-12-07T07:04:06.962Z,35.90
2022-12-07T07:05:06.962Z,31.50
2022-12-07T07:06:06.927Z,34.40
2022-12-07T07:07:06.927Z,36.70
2022-12-07T07:08:23.073Z,32.70
2022-12-07T07:09:07.924Z,35.20
2022-12-07T07:10:06.894Z,28.20
2022-12-07T07:11:06.872Z,35.30
2022-12-07T07:12:06.854Z,30.80
2022-12-07T07:13:06.845Z,31.70
2022-12-07T07:14:06.835Z,32.50
2022-12-07T07:15:06.832Z,26.40
2022-12-07T07:16:06.802Z,32.20
2022-12-07T07:17:06.815Z,33.20
2022-12-07T07:18:08.088Z,33.60
2022-12-07T07:19:06.773Z,28.80
2022-12-07T07:20:06.760Z,32.70
2022-12-07T07:21:06.761Z,37.50
2022-12-07T07:22:06.721Z,33.80
2022-12-07T07:23:06.719Z,29.70
2022-12-07T07:24:06.715Z,27.50
2022-12-07T07:25:06.711Z,32.90
2022-12-07T07:26:06.678Z,26.70
2022-12-07T07:27:06.669Z,29.90
2022-12-07T07:28:06.650Z,31.60
2022-12-07T07:29:06.641Z,35.90
2022-12-07T07:30:06.629Z,30.40
2022-12-07T07:31:06.668Z,32.70
2022-12-07T07:32:07.084Z,30.90
2022-12-07T07:33:06.599Z,33.60
2022-12-07T07:34:06.571Z,31.90
2022-12-07T07:35:06.569Z,33.40
2022-12-07T07:36:06.537Z,27.60
2022-12-07T07:37:06.546Z,32.90
2022-12-07T07:38:06.517Z,36.40
2022-12-07T07:39:06.558Z,37.90
2022-12-07T07:40:06.498Z,32.00
2022-12-07T07:41:06.507Z,35.10
2022-12-07T07:42:06.466Z,32.40
2022-12-07T07:43:06.479Z,30.70
2022-12-07T07:44:06.505Z,34.40
2022-12-07T07:45:06.446Z,26.70
2022-12-07T07:46:06.492Z,27.70
2022-12-07T07:47:06.445Z,32.30
2022-12-07T07:48:06.485Z,27.50
2022-12-07T07:49:06.385Z,30.50
2022-12-07T07:50:06.559Z,30.40
2022-12-07T07:51:06.374Z,26.50
2022-12-07T07:52:06.335Z,28.20
2022-12-07T07:53:06.343Z,30.20
2022-12-07T07:54:06.316Z,33.60
2022-12-07T07:55:06.344Z,26.10
2022-12-07T07:56:06.313Z,23.50
2022-12-07T07:57:06.325Z,26.90
2022-12-07T07:58:06.283Z,26.60
2022-12-07T07:59:06.262Z,27.80
2022-12-07T08:00:06.293Z,25.30
2022-12-07T08:01:06.296Z,23.20
2022-12-07T08:02:06.211Z,21.40
2022-12-07T08:03:06.192Z,21.50
2022-12-07T08:04:06.215Z,29.20
2022-12-07T08:05:06.248Z,22.40
2022-12-07T08:06:06.171Z,26.70
2022-12-07T08:07:06.140Z,21.10
2022-12-07T08:08:06.202Z,21.10
2022-12-07T08:09:06.120Z,17.50
2022-12-07T08:10:06.174Z,22.40
2022-12-07T08:11:06.100Z,23.80
2022-12-07T08:12:06.089Z,25.20
2022-12-07T08:13:06.063Z,18.70
2022-12-07T08:14:06.061Z,28.20
2022-12-07T08:15:06.046Z,21.80
2022-12-07T08:16:06.076Z,24.20
2022-12-07T08:17:06.022Z,23.20
2022-12-07T08:18:05.999Z,17.10
2022-12-07T08:19:05.989Z,25.30
2022-12-07T08:20:06.139Z,24.40
2022-12-07T08:21:05.968Z,20.80
2022-12-07T08:22:05.949Z,18.50
2022-12-07T08:23:05.936Z,17.20
2022-12-07T08:24:05.927Z,17.90
2022-12-07T08:25:05.906Z,20.50
2022-12-07T08:26:05.908Z,14.50
2022-12-07T08:27:05.887Z,18.10
2022-12-07T08:28:05.876Z,16.80
2022-12-07T08:29:05.867Z,20.20
2022-12-07T08:30:06.102Z,17.10
2022-12-07T08:31:05.894Z,16.40
2022-12-07T08:32:09.548Z,17.80
2022-12-07T08:33:05.806Z,18.60
2022-12-07T08:34:05.796Z,16.30
2022-12-07T08:35:05.784Z,15.40
2022-12-07T08:36:05.783Z,13.70
2022-12-07T08:37:05.755Z,15.50
2022-12-07T08:38:05.768Z,15.50
2022-12-07T08:39:30.949Z,14.20
2022-12-07T08:40:06.722Z,16.40
2022-12-07T08:41:05.713Z,13.50
2022-12-07T08:42:05.700Z,13.10
2022-12-07T08:43:05.673Z,11.10
2022-12-07T08:44:05.673Z,12.70
2022-12-07T08:45:05.653Z,12.30
2022-12-07T08:46:05.736Z,9.90
2022-12-07T08:47:05.633Z,11.80
2022-12-07T08:48:05.612Z,12.30
2022-12-07T08:49:05.602Z,12.20
2022-12-07T08:50:05.749Z,14.40
2022-12-07T08:51:05.593Z,13.40
2022-12-07T08:52:05.560Z,16.50
2022-12-07T08:53:05.556Z,12.50
2022-12-07T08:54:05.532Z,12.90
2022-12-07T08:55:05.527Z,9.60
2022-12-07T08:56:05.518Z,9.10
2022-12-07T08:57:05.500Z,14.30
2022-12-07T08:58:05.485Z,7.50
2022-12-07T08:59:05.471Z,10.60
2022-12-07T09:00:05.718Z,8.80
2022-12-07T09:01:05.450Z,14.00
2022-12-07T09:02:05.573Z,15.80
2022-12-07T09:03:05.419Z,9.90
2022-12-07T09:04:05.401Z,11.60
2022-12-07T09:05:05.391Z,13.10
2022-12-07T09:06:05.493Z,10.60
2022-12-07T09:07:05.475Z,9.40
2022-12-07T09:08:05.382Z,8.20
2022-12-07T09:09:05.338Z,12.60
2022-12-07T09:10:05.560Z,8.60
2022-12-07T09:11:05.362Z,10.30
2022-12-07T09:12:05.298Z,8.10
2022-12-07T09:13:05.287Z,12.10
2022-12-07T09:14:05.277Z,9.10
2022-12-07T09:15:05.258Z,12.20
2022-12-07T09:16:05.301Z,11.60
2022-12-07T09:17:05.240Z,11.10
2022-12-07T09:18:05.218Z,9.30
2022-12-07T09:19:05.207Z,9.40
2022-12-07T09:20:05.594Z,7.30
2022-12-07T09:21:05.257Z,9.70
2022-12-07T09:22:05.167Z,6.00
2022-12-07T09:23:05.158Z,8.90
2022-12-07T09:24:05.136Z,9.50
2022-12-07T09:25:05.126Z,10.80
2022-12-07T09:26:10.465Z,9.00
2022-12-07T09:27:06.107Z,12.00
2022-12-07T09:28:05.085Z,8.70
2022-12-07T09:29:05.081Z,9.10
2022-12-07T09:30:05.258Z,12.90
2022-12-07T09:32:11.425Z,8.00
2022-12-07T09:33:06.025Z,13.90
2022-12-07T09:34:05.036Z,12.90
2022-12-07T09:35:04.994Z,11.60
2022-12-07T09:36:04.975Z,15.10
2022-12-07T09:37:04.986Z,9.40
2022-12-07T09:38:04.954Z,10.20
2022-12-07T09:39:04.964Z,9.10
2022-12-07T09:40:05.366Z,14.70
2022-12-07T09:41:04.931Z,14.10
2022-12-07T09:42:04.905Z,14.00
2022-12-07T09:43:05.027Z,12.30
2022-12-07T09:44:04.873Z,15.80
2022-12-07T09:45:04.871Z,11.50
2022-12-07T09:46:04.890Z,16.60
2022-12-07T09:47:04.852Z,15.00
2022-12-07T09:48:04.821Z,11.40
2022-12-07T09:49:04.811Z,16.80
2022-12-07T09:50:05.238Z,13.60
2022-12-07T09:51:04.782Z,10.80
2022-12-07T09:52:04.790Z,10.60
2022-12-07T09:53:04.760Z,13.40
2022-12-07T09:54:04.742Z,11.70
2022-12-07T09:55:05.138Z,10.70
2022-12-07T09:56:04.730Z,7.90
2022-12-07T09:57:04.730Z,11.60
2022-12-07T09:58:04.681Z,12.50
2022-12-07T09:59:04.709Z,9.70
2022-12-07T10:00:04.660Z,12.00
2022-12-07T10:01:04.649Z,8.00
2022-12-07T10:02:04.764Z,11.10
2022-12-07T10:03:04.629Z,11.20
2022-12-07T10:04:04.609Z,7.40
2022-12-07T10:05:04.976Z,10.60
2022-12-07T10:06:04.589Z,8.20
2022-12-07T10:07:04.591Z,7.90
2022-12-07T10:08:04.676Z,11.40
2022-12-07T10:09:04.561Z,7.10
2022-12-07T10:10:04.538Z,12.80
2022-12-07T10:11:04.531Z,12.90
2022-12-07T10:12:04.519Z,8.10
2022-12-07T10:13:04.509Z,6.40
2022-12-07T10:14:04.478Z,8.50
2022-12-07T10:15:07.638Z,12.20
2022-12-07T10:16:07.267Z,8.20
2022-12-07T10:17:04.458Z,8.80
2022-12-07T10:18:04.428Z,8.90
2022-12-07T10:19:04.506Z,8.40
2022-12-07T10:20:04.406Z,6.80
2022-12-07T10:21:04.419Z,7.70
2022-12-07T10:22:04.392Z,7.40
2022-12-07T10:23:04.371Z,10.50
2022-12-07T10:24:04.361Z,6.30
2022-12-07T10:25:04.511Z,8.40
2022-12-07T10:26:04.318Z,4.80
2022-12-07T10:27:04.327Z,9.10
2022-12-07T10:28:04.299Z,5.80
2022-12-07T10:29:04.288Z,5.70
2022-12-07T10:30:04.267Z,9.00
2022-12-07T10:31:04.505Z,7.10
2022-12-07T10:32:04.260Z,10.60
2022-12-07T10:33:04.236Z,9.10
2022-12-07T10:34:04.219Z,9.70
2022-12-07T10:35:04.510Z,6.20
2022-12-07T10:36:04.189Z,11.90
2022-12-07T10:37:04.196Z,8.60
2022-12-07T10:38:04.164Z,9.90
2022-12-07T10:39:04.163Z,7.90
2022-12-07T10:40:04.137Z,6.90
2022-12-07T10:41:04.126Z,13.80
2022-12-07T10:42:04.117Z,6.90
2022-12-07T10:43:04.116Z,8.90
2022-12-07T10:44:04.087Z,5.80
2022-12-07T10:45:04.311Z,11.00
2022-12-07T10:46:05.429Z,10.40
2022-12-07T10:47:04.161Z,8.60
2022-12-07T10:48:04.038Z,8.30
2022-12-07T10:49:04.060Z,9.20
2022-12-07T10:50:04.014Z,6.60
2022-12-07T10:51:04.008Z,6.40
2022-12-07T10:52:04.006Z,7.10
2022-12-07T10:53:03.988Z,7.60
2022-12-07T10:54:03.954Z,8.10
2022-12-07T10:55:04.229Z,8.00
2022-12-07T10:56:03.926Z,5.50
2022-12-07T10:57:03.953Z,5.90
2022-12-07T10:58:03.903Z,8.50
2022-12-07T10:59:03.916Z,5.00
2022-12-07T11:00:03.882Z,5.90
2022-12-07T11:01:03.908Z,8.30
2022-12-07T11:02:03.941Z,7.50
2022-12-07T11:03:03.843Z,6.90
2022-12-07T11:04:03.825Z,6.90
2022-12-07T11:05:04.326Z,6.70
2022-12-07T11:06:03.795Z,5.90
2022-12-07T11:07:03.805Z,4.00
2022-12-07T11:08:03.881Z,7.40
2022-12-07T11:09:03.753Z,8.40
2022-12-07T11:10:09.044Z,8.50
2022-12-07T11:11:04.724Z,7.40
2022-12-07T11:12:03.722Z,11.60
2022-12-07T11:13:03.727Z,10.80
2022-12-07T11:14:03.693Z,7.20
2022-12-07T11:15:03.673Z,8.50
2022-12-07T11:16:03.690Z,8.40
2022-12-07T11:17:03.651Z,4.60
2022-12-07T11:18:03.655Z,9.40
2022-12-07T11:19:03.624Z,8.80
2022-12-07T11:20:03.897Z,9.20
2022-12-07T11:21:03.593Z,9.40
2022-12-07T11:22:03.583Z,9.40
2022-12-07T11:23:03.575Z,14.40
2022-12-07T11:24:03.553Z,6.30
2022-12-07T11:25:03.543Z,5.90
2022-12-07T11:26:03.523Z,7.50
2022-12-07T11:27:03.518Z,8.30
2022-12-07T11:28:03.520Z,6.40
2022-12-07T11:29:03.493Z,9.20
2022-12-07T11:30:03.818Z,6.20
2022-12-07T11:31:03.517Z,8.80
2022-12-07T11:32:03.498Z,5.90
2022-12-07T11:33:03.446Z,7.90
2022-12-07T11:34:03.422Z,8.10
2022-12-07T11:35:03.412Z,6.10
2022-12-07T11:36:03.395Z,8.50
2022-12-07T11:37:03.391Z,8.20
2022-12-07T11:38:03.382Z,11.60
2022-12-07T11:39:03.361Z,6.90
2022-12-07T11:40:03.713Z,6.10
2022-12-07T11:41:03.331Z,9.90
2022-12-07T11:42:03.320Z,3.90
2022-12-07T11:43:03.322Z,7.40
2022-12-07T11:44:10.432Z,7.60
2022-12-07T11:45:03.291Z,7.50
2022-12-07T11:46:03.280Z,6.50
2022-12-07T11:47:03.334Z,6.00
2022-12-07T11:48:03.264Z,6.30
2022-12-07T11:49:03.232Z,4.50
2022-12-07T11:50:03.221Z,13.00
2022-12-07T11:51:03.202Z,8.60
2022-12-07T11:52:03.192Z,8.30
2022-12-07T11:53:03.186Z,6.00
2022-12-07T11:54:03.174Z,9.80
2022-12-07T11:55:03.143Z,7.70
2022-12-07T11:56:03.131Z,14.20
2022-12-07T11:57:03.121Z,8.00
2022-12-07T11:58:03.131Z,5.50
2022-12-07T11:59:03.094Z,4.30
2022-12-07T12:00:03.478Z,6.40
2022-12-07T12:01:03.062Z,5.90
2022-12-07T12:02:03.073Z,7.40
2022-12-07T12:03:03.089Z,7.90
2022-12-07T12:04:03.041Z,7.90
2022-12-07T12:05:03.015Z,4.80
2022-12-07T12:06:03.010Z,5.10
2022-12-07T12:10:04.374Z,9.20
2022-12-07T12:11:02.941Z,12.10
2022-12-07T12:15:04.099Z,5.40
2022-12-07T12:16:02.897Z,6.20
2022-12-07T12:17:02.870Z,6.60
2022-12-07T12:18:02.860Z,7.50
2022-12-07T12:19:02.830Z,5.00
2022-12-07T12:20:02.831Z,7.00
2022-12-07T12:21:02.809Z,8.60
2022-12-07T12:22:02.790Z,5.20
2022-12-07T12:23:02.780Z,7.30
2022-12-07T12:24:02.788Z,4.90
2022-12-07T12:25:03.108Z,6.60
2022-12-07T12:26:02.774Z,6.40
2022-12-07T12:27:02.729Z,8.90
2022-12-07T12:28:02.718Z,10.50
2022-12-07T12:29:02.708Z,5.50
2022-12-07T12:30:02.708Z,7.30
2022-12-07T12:31:02.679Z,7.50
2022-12-07T12:32:02.720Z,7.40
2022-12-07T12:33:02.650Z,7.80
2022-12-07T12:34:02.637Z,11.00
2022-12-07T12:35:03.186Z,6.50
2022-12-07T12:36:02.691Z,7.40
2022-12-07T12:37:02.597Z,5.60
2022-12-07T12:38:02.578Z,4.10
2022-12-07T12:39:02.587Z,9.80
2022-12-07T12:40:02.573Z,5.40
2022-12-07T12:41:02.557Z,5.70
2022-12-07T12:42:02.529Z,3.80
2022-12-07T12:43:02.520Z,5.00
2022-12-07T12:44:02.515Z,7.40
2022-12-07T12:45:02.815Z,5.00
2022-12-07T12:46:02.519Z,9.30
2022-12-07T12:47:02.456Z,6.90
2022-12-07T12:48:02.461Z,6.50
2022-12-07T12:49:02.445Z,4.60
2022-12-07T12:50:02.426Z,4.50
2022-12-07T12:51:02.416Z,7.70
2022-12-07T12:52:02.395Z,6.20
2022-12-07T12:53:02.386Z,6.30
2022-12-07T12:54:02.384Z,8.80
2022-12-07T12:55:02.762Z,7.20
2022-12-07T12:56:02.365Z,4.40
2022-12-07T12:57:02.335Z,3.60
2022-12-07T12:58:02.332Z,6.20
2022-12-07T12:59:02.318Z,11.30
2022-12-07T13:00:02.324Z,5.10
2022-12-07T13:01:02.304Z,10.90
2022-12-07T13:02:02.362Z,5.10
2022-12-07T13:03:02.256Z,8.50
2022-12-07T13:04:02.334Z,6.60
2022-12-07T13:05:02.822Z,5.90
2022-12-07T13:06:02.234Z,6.30
2022-12-07T13:07:02.205Z,8.70
2022-12-07T13:08:02.237Z,10.40
2022-12-07T13:09:02.185Z,6.30
2022-12-07T13:10:02.163Z,5.90
2022-12-07T13:11:02.153Z,4.90
2022-12-07T13:12:02.144Z,8.20
2022-12-07T13:13:02.136Z,5.70
2022-12-07T13:14:02.131Z,5.40
2022-12-07T13:15:02.509Z,6.80
2022-12-07T13:16:02.084Z,5.40
2022-12-07T13:17:02.130Z,5.60
2022-12-07T13:18:02.090Z,6.40
2022-12-07T13:19:02.041Z,6.50
2022-12-07T13:20:02.041Z,9.20
2022-12-07T13:21:02.021Z,4.50
2022-12-07T13:22:02.019Z,5.40
2022-12-07T13:23:01.994Z,5.40
2022-12-07T13:24:01.993Z,8.10
2022-12-07T13:25:02.276Z,7.60
2022-12-07T13:26:01.964Z,10.50
2022-12-07T13:27:01.941Z,6.90
2022-12-07T13:28:01.931Z,6.10
2022-12-07T13:29:01.919Z,6.70
2022-12-07T13:30:01.911Z,7.80
2022-12-07T13:31:01.906Z,5.50
2022-12-07T13:32:01.889Z,6.70
2022-12-07T13:33:01.863Z,6.60
2022-12-07T13:34:01.859Z,6.20
2022-12-07T13:35:02.023Z,7.70
2022-12-07T13:36:01.833Z,6.70
2022-12-07T13:37:01.814Z,4.60
2022-12-07T13:38:01.805Z,9.50
2022-12-07T13:39:01.780Z,7.50
2022-12-07T13:40:01.788Z,5.90
2022-12-07T13:41:01.752Z,5.70
2022-12-07T13:42:01.749Z,4.60
2022-12-07T13:43:01.737Z,5.10
2022-12-07T13:44:01.726Z,6.20
2022-12-07T13:45:02.175Z,6.00
2022-12-07T13:46:01.756Z,12.20
2022-12-07T13:47:01.677Z,5.30
2022-12-07T13:48:01.666Z,6.50
2022-12-07T13:49:01.647Z,6.90
2022-12-07T13:50:01.666Z,6.20
2022-12-07T13:51:01.617Z,5.90
2022-12-07T13:52:01.615Z,7.90
2022-12-07T13:53:01.596Z,7.70
2022-12-07T13:54:01.598Z,4.80
2022-12-07T13:55:02.255Z,7.10
2022-12-07T13:56:01.556Z,2.60
2022-12-07T13:57:01.547Z,8.70
2022-12-07T13:58:01.533Z,7.80
2022-12-07T13:59:01.524Z,12.30
2022-12-07T14:00:01.522Z,3.30
2022-12-07T14:01:01.656Z,5.20
2022-12-07T14:02:01.557Z,6.40
2022-12-07T14:03:01.628Z,9.10
2022-12-07T14:04:01.454Z,8.20
2022-12-07T14:05:01.699Z,7.80
2022-12-07T14:06:01.423Z,10.40
2022-12-07T14:07:01.421Z,5.90
2022-12-07T14:08:01.496Z,7.90
2022-12-07T14:09:01.394Z,12.20
2022-12-07T14:10:01.382Z,8.90
2022-12-07T14:11:01.363Z,6.30
2022-12-07T14:12:01.505Z,9.70
2022-12-07T14:13:01.333Z,6.30
2022-12-07T14:14:01.333Z,6.10
2022-12-07T14:15:01.642Z,7.20
2022-12-07T14:16:01.302Z,6.60
2022-12-07T14:17:01.331Z,7.80
2022-12-07T14:18:01.271Z,6.80
2022-12-07T14:19:01.252Z,8.60
2022-12-07T14:20:01.263Z,7.90
2022-12-07T14:21:01.240Z,7.80
2022-12-07T14:22:01.221Z,6.30
2022-12-07T14:23:01.200Z,7.00
2022-12-07T14:24:01.201Z,5.90
2022-12-07T14:25:01.685Z,7.10
2022-12-07T14:26:01.179Z,6.80
2022-12-07T14:27:01.171Z,6.90
2022-12-07T14:28:01.138Z,8.40
2022-12-07T14:29:01.130Z,6.10
2022-12-07T14:30:01.111Z,4.00
2022-12-07T14:31:01.189Z,5.50
2022-12-07T14:32:01.088Z,4.20
2022-12-07T14:33:01.079Z,7.00
2022-12-07T14:34:01.070Z,4.00
2022-12-07T14:35:01.488Z,5.20
2022-12-07T14:36:01.048Z,5.50
2022-12-07T14:37:01.020Z,4.20
2022-12-07T14:38:01.014Z,8.60
2022-12-07T14:39:00.989Z,6.20
2022-12-07T14:40:00.987Z,5.80
2022-12-07T14:41:00.980Z,5.10
2022-12-07T14:42:00.957Z,7.80
2022-12-07T14:43:00.949Z,5.50
2022-12-07T14:44:22.420Z,7.20
2022-12-07T14:45:02.308Z,4.70
2022-12-07T14:46:00.977Z,5.60
2022-12-07T14:50:05.130Z,4.60
2022-12-07T14:54:01.850Z,10.30
2022-12-07T14:55:01.113Z,8.80
2022-12-07T14:56:00.833Z,7.20
2022-12-07T14:57:00.764Z,5.60
2022-12-07T14:58:00.781Z,8.90
2022-12-07T14:59:00.747Z,7.10
2022-12-07T15:00:00.723Z,6.80
2022-12-07T15:01:00.717Z,6.20
2022-12-07T15:02:00.714Z,7.00
2022-12-07T15:03:00.677Z,7.70
2022-12-07T15:04:00.840Z,7.00
2022-12-07T15:05:01.031Z,7.30
2022-12-07T15:06:00.661Z,5.20
2022-12-07T15:07:00.624Z,6.90
2022-12-07T15:08:00.686Z,5.50
2022-12-07T15:09:00.595Z,6.30
2022-12-07T15:10:00.592Z,11.90
2022-12-07T15:11:00.584Z,9.70
2022-12-07T15:12:00.574Z,7.00
2022-12-07T15:13:00.543Z,5.50
2022-12-07T15:14:00.534Z,7.80
2022-12-07T15:15:00.963Z,6.30
2022-12-07T15:16:00.641Z,3.40
2022-12-07T15:17:09.883Z,8.40
2022-12-07T15:18:01.505Z,11.10
2022-12-07T15:19:26.669Z,9.20
2022-12-07T15:20:01.468Z,9.20
2022-12-07T15:21:00.461Z,7.00
2022-12-07T15:22:00.451Z,9.10
2022-12-07T15:23:00.422Z,8.00
2022-12-07T15:24:00.411Z,6.60
2022-12-07T15:25:00.994Z,6.80
2022-12-07T15:26:00.392Z,11.00
2022-12-07T15:27:00.371Z,10.50
2022-12-07T15:28:00.352Z,10.40
2022-12-07T15:29:00.339Z,10.50
2022-12-07T15:30:00.332Z,8.30
2022-12-07T15:31:11.515Z,6.40
2022-12-07T15:32:01.375Z,6.00
2022-12-07T15:33:00.280Z,8.10
2022-12-07T15:34:00.270Z,7.20
2022-12-07T15:35:00.491Z,9.90
2022-12-07T15:36:00.259Z,8.60
2022-12-07T15:37:00.237Z,8.70
2022-12-07T15:38:00.219Z,9.90
2022-12-07T15:39:15.770Z,9.10
2022-12-07T15:40:05.883Z,10.10
2022-12-07T15:41:01.189Z,7.10
2022-12-07T15:42:00.168Z,10.00
2022-12-07T15:43:00.159Z,11.30
2022-12-07T15:44:00.138Z,12.10
2022-12-07T15:45:00.402Z,8.10
2022-12-07T15:46:00.258Z,9.70
2022-12-07T15:47:00.111Z,7.90
2022-12-07T15:48:27.404Z,10.70
2022-12-07T15:49:01.077Z,13.50
2022-12-07T15:50:00.817Z,9.10
2022-12-07T15:51:00.046Z,8.50
2022-12-07T15:52:00.094Z,11.90
2022-12-07T15:53:00.020Z,8.70
2022-12-07T15:54:00.028Z,10.90
2022-12-07T15:55:00.039Z,10.00
2022-12-07T15:55:59.981Z,7.60
2022-12-07T15:56:59.988Z,7.20
2022-12-07T15:57:59.954Z,8.40
2022-12-07T15:58:59.955Z,8.60
2022-12-07T15:59:59.926Z,8.80
2022-12-07T16:00:59.914Z,9.20
2022-12-07T16:02:00.005Z,11.70
2022-12-07T16:02:59.971Z,8.50
2022-12-07T16:03:59.873Z,9.60
2022-12-07T16:04:59.931Z,8.00
2022-12-07T16:05:59.852Z,9.70
2022-12-07T16:06:59.847Z,7.90
2022-12-07T16:07:59.908Z,14.70
2022-12-07T16:08:59.813Z,6.10
2022-12-07T16:09:59.804Z,10.40
2022-12-07T16:10:59.782Z,9.20
2022-12-07T16:11:59.792Z,10.10
2022-12-07T16:12:59.753Z,6.80
2022-12-07T16:13:59.751Z,15.80
2022-12-07T16:15:00.022Z,8.60
2022-12-07T16:15:59.737Z,11.30
2022-12-07T16:16:59.725Z,9.10
2022-12-07T16:17:59.692Z,7.80
2022-12-07T16:18:59.692Z,7.50
2022-12-07T16:19:59.662Z,8.10
2022-12-07T16:20:59.651Z,10.60
2022-12-07T16:21:59.674Z,10.20
2022-12-07T16:22:59.650Z,9.20
2022-12-07T16:23:59.610Z,7.90
2022-12-07T16:24:59.688Z,17.60
2022-12-07T16:25:59.579Z,11.40
2022-12-07T16:26:59.583Z,8.90
2022-12-07T16:27:59.560Z,11.70
2022-12-07T16:28:59.558Z,8.20
2022-12-07T16:29:59.557Z,10.60
2022-12-07T16:30:59.553Z,12.90
2022-12-07T16:31:59.640Z,9.50
2022-12-07T16:33:02.622Z,10.60
2022-12-07T16:33:59.488Z,11.90
2022-12-07T16:34:59.489Z,9.30
2022-12-07T16:35:59.455Z,7.70
2022-12-07T16:37:04.293Z,10.60
2022-12-07T16:38:00.429Z,11.10
2022-12-07T16:38:59.414Z,9.70
2022-12-07T16:39:59.409Z,13.90
2022-12-07T16:40:59.377Z,10.30
2022-12-07T16:41:59.608Z,10.20
2022-12-07T16:42:59.742Z,11.80
2022-12-07T16:43:59.347Z,17.50
2022-12-07T16:44:59.327Z,8.90
2022-12-07T16:45:59.316Z,9.60
2022-12-07T16:46:59.382Z,9.80
2022-12-07T16:47:59.316Z,10.20
2022-12-07T16:48:59.285Z,10.10
2022-12-07T16:49:59.276Z,9.10
2022-12-07T16:50:59.254Z,40.90
2022-12-07T16:52:18.636Z,18.90
2022-12-07T16:53:00.235Z,112.90
2022-12-07T16:53:59.226Z,18.80
2022-12-07T16:54:59.205Z,10.70
2022-12-07T16:55:59.233Z,9.80
2022-12-07T16:56:59.174Z,7.80
2022-12-07T16:57:59.174Z,8.10
2022-12-07T16:58:59.143Z,13.50
2022-12-07T16:59:59.159Z,11.50
2022-12-07T17:00:59.162Z,8.90
2022-12-07T17:01:59.122Z,13.60
2022-12-07T17:02:59.108Z,9.20
2022-12-07T17:03:59.432Z,11.60
2022-12-07T17:04:59.083Z,9.70
2022-12-07T17:05:59.055Z,8.30
2022-12-07T17:06:59.053Z,12.80
2022-12-07T17:07:59.118Z,11.70
2022-12-07T17:08:59.178Z,10.70
2022-12-07T17:09:59.010Z,10.00
2022-12-07T17:10:58.991Z,12.50
2022-12-07T17:11:59.029Z,13.50
2022-12-07T17:12:58.972Z,7.90
2022-12-07T17:13:59.135Z,10.80
2022-12-07T17:14:58.942Z,14.60
2022-12-07T17:15:58.965Z,12.50
2022-12-07T17:16:59.823Z,10.80
2022-12-07T17:17:58.910Z,12.70
2022-12-07T17:18:59.062Z,11.10
2022-12-07T17:19:58.870Z,13.00
2022-12-07T17:21:03.974Z,10.30
2022-12-07T17:21:59.860Z,7.90
2022-12-07T17:22:58.850Z,12.80
2022-12-07T17:23:58.852Z,10.70
2022-12-07T17:24:58.807Z,12.40
2022-12-07T17:25:58.789Z,12.00
2022-12-07T17:26:58.781Z,10.30
2022-12-07T17:27:58.778Z,14.00
2022-12-07T17:28:58.754Z,11.50
2022-12-07T17:29:58.744Z,13.70
2022-12-07T17:30:58.842Z,7.90
2022-12-07T17:31:58.769Z,9.10
2022-12-07T17:32:58.717Z,14.60
2022-12-07T17:33:58.689Z,10.40
2022-12-07T17:34:58.685Z,12.40
2022-12-07T17:35:58.666Z,11.10
2022-12-07T17:36:58.646Z,12.40
2022-12-07T17:37:58.657Z,11.90
2022-12-07T17:38:58.626Z,9.90
2022-12-07T17:39:58.641Z,12.70
2022-12-07T17:40:58.605Z,14.00
2022-12-07T17:41:58.593Z,9.70
2022-12-07T17:42:58.606Z,12.80
2022-12-07T17:44:04.449Z,20.30
2022-12-07T17:46:08.464Z,13.00
2022-12-07T17:47:08.389Z,12.70
2022-12-07T17:48:08.381Z,4.90
2022-12-07T17:49:08.359Z,23.60
2022-12-07T17:50:08.407Z,41.70
2022-12-07T17:51:08.347Z,31.70
2022-12-07T17:52:08.338Z,11.60
2022-12-07T17:53:08.328Z,13.00
2022-12-07T17:54:08.297Z,12.30
2022-12-07T17:55:08.289Z,10.30
2022-12-07T17:57:09.274Z,12.50
2022-12-07T17:58:08.257Z,96.10
2022-12-07T17:59:08.235Z,9.00
2022-12-07T18:00:08.223Z,16.10
2022-12-07T18:01:08.262Z,19.20
2022-12-07T18:02:08.196Z,13.70
2022-12-07T18:03:08.242Z,10.70
2022-12-07T18:04:08.167Z,13.80
2022-12-07T18:05:08.155Z,12.40
2022-12-07T18:06:08.212Z,11.80
2022-12-07T18:07:08.136Z,11.50
2022-12-07T18:08:08.203Z,10.20
2022-12-07T18:09:08.106Z,13.50
2022-12-07T18:10:08.097Z,9.80
2022-12-07T18:11:08.085Z,10.60
2022-12-07T18:12:08.074Z,10.30
2022-12-07T18:13:08.065Z,6.20
2022-12-07T18:14:08.047Z,13.90
2022-12-07T18:15:08.034Z,9.40
2022-12-07T18:16:08.116Z,16.80
2022-12-07T18:17:08.060Z,13.70
2022-12-07T18:18:08.024Z,15.30
2022-12-07T18:19:07.993Z,32.50
2022-12-07T18:20:08.045Z,84.60
2022-12-07T18:21:07.954Z,32.80
2022-12-07T18:22:07.942Z,7.00
2022-12-07T18:23:07.941Z,10.40
2022-12-07T18:24:07.921Z,9.60
2022-12-07T18:25:07.922Z,8.20
2022-12-07T18:26:07.892Z,13.90
2022-12-07T18:27:07.871Z,11.30
2022-12-07T18:28:07.881Z,7.40
2022-12-07T18:29:07.851Z,5.80
2022-12-07T18:30:07.842Z,9.70
2022-12-07T18:31:15.985Z,7.10
2022-12-07T18:32:08.867Z,11.30
2022-12-07T18:33:07.812Z,11.50
2022-12-07T18:34:07.789Z,9.20
2022-12-07T18:35:07.774Z,9.40
2022-12-07T18:36:07.759Z,9.20
2022-12-07T18:37:07.752Z,7.40
2022-12-07T18:38:07.740Z,10.60
2022-12-07T18:39:07.740Z,13.00
2022-12-07T18:40:07.724Z,12.90
2022-12-07T18:41:07.689Z,9.80
2022-12-07T18:42:07.678Z,10.00
2022-12-07T18:43:07.669Z,10.50
2022-12-07T18:44:07.678Z,11.80
2022-12-07T18:45:07.651Z,10.30
2022-12-07T18:46:07.662Z,8.60
2022-12-07T18:47:07.722Z,9.80
2022-12-07T18:48:07.617Z,15.80
2022-12-07T18:49:07.651Z,10.30
2022-12-07T18:50:07.577Z,10.10
2022-12-07T18:51:07.575Z,9.00
2022-12-07T18:52:07.559Z,7.40